Terminal Aerodrome Forecast
Issued by NWS

Home | Current Version | Previous Version | Graphics & Text | Print | Product List | Glossary On
Versions: 1 2 3 4 5 6 7 8 9 10 11 12 13 14 15 16 17 18
000
FTUS43 KICT 141613 AAB
TAFRSL
TAF AMD
KRSL 141613Z 1416/1512 VRB04KT 2SM BR OVC003
      TEMPO 1416/1417 4SM BR SCT003 OVC008
     FM141700 VRB06KT P6SM BKN010
     FM141800 26008KT P6SM SCT020
     FM142100 31015G22KT P6SM SCT030
     FM142300 32029G41KT P6SM SCT035
     FM150800 34015G25KT P6SM SCT250=

USA.gov is the U.S. government's official web portal to all federal, state and local government web resources and services.